sensor_id;sensor_type;location;lat;lon;timestamp;P1;durP1;ratioP1;P2;durP2;ratioP2
76439;SDS011;65274;44.982;20.060;2024-02-23T01:32:36;11.30;;;6.50;;
76439;SDS011;65274;44.982;20.060;2024-02-23T03:04:38;13.85;;;6.50;;
76439;SDS011;65274;44.982;20.060;2024-02-23T07:26:33;15.52;;;9.90;;
76439;SDS011;65274;44.982;20.060;2024-02-23T07:29:00;11.20;;;7.43;;
76439;SDS011;65274;44.982;20.060;2024-02-23T07:31:28;11.07;;;6.85;;
76439;SDS011;65274;44.982;20.060;2024-02-23T07:33:55;12.63;;;6.72;;
76439;SDS011;65274;44.982;20.060;2024-02-23T07:36:22;13.25;;;8.15;;
76439;SDS011;65274;44.982;20.060;2024-02-23T07:38:49;11.57;;;7.13;;
76439;SDS011;65274;44.982;20.060;2024-02-23T07:41:22;17.30;;;9.35;;
76439;SDS011;65274;44.982;20.060;2024-02-23T12:12:01;9.07;;;3.47;;
76439;SDS011;65274;44.982;20.060;2024-02-23T12:14:27;9.80;;;4.00;;
76439;SDS011;65274;44.982;20.060;2024-02-23T12:16:54;5.25;;;3.47;;
76439;SDS011;65274;44.982;20.060;2024-02-23T12:19:23;6.10;;;3.53;;
76439;SDS011;65274;44.982;20.060;2024-02-23T21:04:16;6.93;;;3.97;;
76439;SDS011;65274;44.982;20.060;2024-02-23T21:07:13;8.63;;;3.92;;
76439;SDS011;65274;44.982;20.060;2024-02-23T21:10:01;8.27;;;4.07;;
76439;SDS011;65274;44.982;20.060;2024-02-23T21:12:41;9.50;;;5.05;;
76439;SDS011;65274;44.982;20.060;2024-02-23T21:15:15;8.52;;;4.07;;
76439;SDS011;65274;44.982;20.060;2024-02-23T21:17:45;12.63;;;4.60;;
76439;SDS011;65274;44.982;20.060;2024-02-23T21:20:13;9.23;;;4.63;;
76439;SDS011;65274;44.982;20.060;2024-02-23T21:23:00;8.38;;;5.40;;
76439;SDS011;65274;44.982;20.060;2024-02-23T21:47:08;8.27;;;3.97;;
76439;SDS011;65274;44.982;20.060;2024-02-23T21:49:37;7.97;;;4.40;;
76439;SDS011;65274;44.982;20.060;2024-02-23T21:52:09;6.20;;;3.95;;
76439;SDS011;65274;44.982;20.060;2024-02-23T21:54:36;6.90;;;4.05;;
76439;SDS011;65274;44.982;20.060;2024-02-23T21:57:05;8.48;;;4.25;;
76439;SDS011;65274;44.982;20.060;2024-02-23T21:59:34;7.60;;;4.07;;
76439;SDS011;65274;44.982;20.060;2024-02-23T22:02:03;9.02;;;4.32;;
76439;SDS011;65274;44.982;20.060;2024-02-23T22:04:34;8.55;;;4.35;;
76439;SDS011;65274;44.982;20.060;2024-02-23T22:07:05;7.65;;;4.07;;
76439;SDS011;65274;44.982;20.060;2024-02-23T22:09:32;6.60;;;4.28;;
76439;SDS011;65274;44.982;20.060;2024-02-23T22:11:58;6.30;;;3.60;;
76439;SDS011;65274;44.982;20.060;2024-02-23T22:14:24;5.93;;;3.97;;
76439;SDS011;65274;44.982;20.060;2024-02-23T22:16:53;5.65;;;3.40;;
76439;SDS011;65274;44.982;20.060;2024-02-23T22:19:23;7.00;;;3.80;;
76439;SDS011;65274;44.982;20.060;2024-02-23T22:27:13;6.50;;;3.47;;
76439;SDS011;65274;44.982;20.060;2024-02-23T22:29:41;4.32;;;3.20;;
76439;SDS011;65274;44.982;20.060;2024-02-23T22:32:10;5.75;;;3.17;;
76439;SDS011;65274;44.982;20.060;2024-02-23T22:34:37;4.90;;;3.72;;
76439;SDS011;65274;44.982;20.060;2024-02-23T22:37:03;3.88;;;2.90;;
76439;SDS011;65274;44.982;20.060;2024-02-23T22:39:30;3.90;;;2.92;;
76439;SDS011;65274;44.982;20.060;2024-02-23T22:41:56;5.78;;;2.97;;
76439;SDS011;65274;44.982;20.060;2024-02-23T22:44:25;5.60;;;3.40;;
76439;SDS011;65274;44.982;20.060;2024-02-23T22:46:58;5.50;;;3.20;;
76439;SDS011;65274;44.982;20.060;2024-02-23T22:49:25;4.50;;;3.10;;
76439;SDS011;65274;44.982;20.060;2024-02-23T22:51:52;8.15;;;3.35;;
76439;SDS011;65274;44.982;20.060;2024-02-23T22:54:19;4.10;;;2.67;;
76439;SDS011;65274;44.982;20.060;2024-02-23T22:56:45;4.82;;;2.55;;
76439;SDS011;65274;44.982;20.060;2024-02-23T22:59:11;2.90;;;2.35;;
76439;SDS011;65274;44.982;20.060;2024-02-23T23:01:37;5.57;;;2.60;;
76439;SDS011;65274;44.982;20.060;2024-02-23T23:04:04;9.65;;;3.83;;
76439;SDS011;65274;44.982;20.060;2024-02-23T23:06:31;3.85;;;2.67;;
76439;SDS011;65274;44.982;20.060;2024-02-23T23:09:00;5.75;;;2.75;;
76439;SDS011;65274;44.982;20.060;2024-02-23T23:11:27;6.68;;;3.22;;
76439;SDS011;65274;44.982;20.060;2024-02-23T23:13:55;3.15;;;2.53;;
76439;SDS011;65274;44.982;20.060;2024-02-23T23:16:22;4.78;;;2.75;;
76439;SDS011;65274;44.982;20.060;2024-02-23T23:18:48;4.45;;;3.17;;
76439;SDS011;65274;44.982;20.060;2024-02-23T23:21:14;3.92;;;2.35;;
76439;SDS011;65274;44.982;20.060;2024-02-23T23:23:41;5.97;;;2.83;;
76439;SDS011;65274;44.982;20.060;2024-02-23T23:26:07;7.32;;;3.38;;
76439;SDS011;65274;44.982;20.060;2024-02-23T23:28:34;5.25;;;3.38;;
76439;SDS011;65274;44.982;20.060;2024-02-23T23:31:00;4.68;;;2.15;;
76439;SDS011;65274;44.982;20.060;2024-02-23T23:33:26;4.45;;;2.10;;
76439;SDS011;65274;44.982;20.060;2024-02-23T23:35:52;3.08;;;2.45;;
76439;SDS011;65274;44.982;20.060;2024-02-23T23:38:19;4.00;;;1.95;;
76439;SDS011;65274;44.982;20.060;2024-02-23T23:40:46;3.97;;;2.38;;
76439;SDS011;65274;44.982;20.060;2024-02-23T23:43:12;4.88;;;2.38;;
76439;SDS011;65274;44.982;20.060;2024-02-23T23:45:38;5.40;;;2.63;;
76439;SDS011;65274;44.982;20.060;2024-02-23T23:48:04;4.65;;;2.25;;
76439;SDS011;65274;44.982;20.060;2024-02-23T23:50:31;3.97;;;2.15;;
76439;SDS011;65274;44.982;20.060;2024-02-23T23:53:02;3.03;;;1.98;;
76439;SDS011;65274;44.982;20.060;2024-02-23T23:55:28;3.47;;;2.00;;
76439;SDS011;65274;44.982;20.060;2024-02-23T23:57:55;4.22;;;2.00;;
